Time;durP1;ratioP1;P1;durP2;ratioP2;P2;SDS_P1;SDS_P2;PMS_P1;PMS_P2;Temp;Humidity;BMP_temperature;BMP_pressure;BME280_temperature;BME280_humidity;BME280_pressure;Samples;Min_cycle;Max_cycle;Signal;HPM_P1;HPM_P2
2022/11/30 00:00:53;;;;;;;;;;;4.90;99.90;;;;;;5001756;28;20363;-54
2022/11/30 00:03:18;;;;;;;;;;;4.90;99.90;;;;;;5000951;28;19924;-56
2022/11/30 00:05:44;;;;;;;;;;;5.00;99.90;;;;;;5002603;28;19996;-56
2022/11/30 00:08:09;;;;;;;;;;;5.00;99.90;;;;;;5001013;28;19950;-58
2022/11/30 00:10:36;;;;;;;;;;;5.00;99.90;;;;;;4996310;28;19913;-57
2022/11/30 00:13:02;;;;;;;;;;;5.00;99.90;;;;;;5002200;28;20636;-57
2022/11/30 00:15:27;;;;;;;;;;;5.00;99.90;;;;;;5001835;28;19960;-54
2022/11/30 00:17:56;;;;;;;;;;;5.00;99.90;;;;;;5001044;28;19916;-54
2022/11/30 00:20:22;;;;;;;;;;;5.00;99.90;;;;;;5001154;28;19913;-53
2022/11/30 00:22:47;;;;;;;;;;;5.00;99.90;;;;;;5001816;28;19928;-54
2022/11/30 00:25:13;;;;;;;;;;;5.10;99.90;;;;;;5001169;28;19916;-58
2022/11/30 00:27:38;;;;;;;;;;;5.00;99.90;;;;;;4999409;28;19936;-47
2022/11/30 00:30:04;;;;;;;;;;;5.00;99.90;;;;;;5001358;28;20375;-55
2022/11/30 00:32:30;;;;;;;;;;;5.00;99.90;;;;;;5000090;28;19919;-50
2022/11/30 00:34:55;;;;;;;;;;;5.00;99.90;;;;;;5002090;28;19917;-50
2022/11/30 00:37:21;;;;;;;;;;;5.00;99.90;;;;;;4998814;28;19960;-46
2022/11/30 00:39:47;;;;;;;;;;;5.00;99.90;;;;;;5000929;28;19960;-56
2022/11/30 00:42:12;;;;;;;;;;;5.00;99.90;;;;;;5001006;28;19913;-48
2022/11/30 00:44:38;;;;;;;;;;;5.00;99.90;;;;;;5001677;28;19911;-51
2022/11/30 00:47:03;;;;;;;;;;;5.00;99.90;;;;;;5000076;28;20407;-49
2022/11/30 00:49:29;;;;;;;;;;;5.00;99.90;;;;;;5001051;28;19920;-48
2022/11/30 00:51:54;;;;;;;;;;;5.00;99.90;;;;;;4984884;28;19923;-54
2022/11/30 00:54:20;;;;;;;;;;;5.00;99.90;;;;;;5001336;28;19910;-51
2022/11/30 00:56:45;;;;;;;;;;;5.00;99.90;;;;;;4999657;28;19917;-50
2022/11/30 00:59:11;;;;;;;;;;;5.00;99.90;;;;;;5001072;28;19920;-52
2022/11/30 01:01:36;;;;;;;;;;;5.10;99.90;;;;;;5000232;28;20012;-51
2022/11/30 01:04:02;;;;;;;;;;;5.10;99.90;;;;;;4999619;28;20374;-48
2022/11/30 01:06:29;;;;;;;;;;;5.10;99.90;;;;;;4998277;28;19917;-50
2022/11/30 01:08:55;;;;;;;;;;;5.10;99.90;;;;;;5001163;28;19960;-47
2022/11/30 01:11:22;;;;;;;;;;;5.10;99.90;;;;;;5000472;28;20435;-47
2022/11/30 01:13:47;;;;;;;;;;;5.10;99.90;;;;;;5000261;28;19976;-49
2022/11/30 01:16:14;;;;;;;;;;;5.10;99.90;;;;;;4999979;28;19917;-50
2022/11/30 01:18:40;;;;;;;;;;;5.10;99.90;;;;;;5001005;28;19940;-48
2022/11/30 01:21:07;;;;;;;;;;;5.20;99.90;;;;;;5000837;28;19913;-51
2022/11/30 01:23:32;;;;;;;;;;;5.10;99.90;;;;;;5000114;28;19921;-54
2022/11/30 01:25:58;;;;;;;;;;;5.10;99.90;;;;;;4999201;28;19913;-46
2022/11/30 01:28:23;;;;;;;;;;;5.10;99.90;;;;;;4999654;28;19920;-53
2022/11/30 01:30:56;;;;;;;;;;;5.10;99.90;;;;;;5000758;28;20272;-49
2022/11/30 01:33:21;;;;;;;;;;;5.10;99.90;;;;;;5000117;28;19910;-52
2022/11/30 01:35:56;;;;;;;;;;;5.00;99.90;;;;;;5000439;28;19929;-50
2022/11/30 01:38:22;;;;;;;;;;;5.10;99.90;;;;;;4999703;28;19971;-52
2022/11/30 01:40:49;;;;;;;;;;;5.10;99.90;;;;;;5000838;28;20247;-57
2022/11/30 01:43:14;;;;;;;;;;;5.10;99.90;;;;;;4999777;28;20303;-49
2022/11/30 01:45:40;;;;;;;;;;;5.10;99.90;;;;;;5000452;28;19963;-53
2022/11/30 01:48:07;;;;;;;;;;;5.00;99.90;;;;;;4998616;28;19917;-46
2022/11/30 01:50:34;;;;;;;;;;;5.00;99.90;;;;;;4998551;28;19935;-52
2022/11/30 01:53:01;;;;;;;;;;;5.00;99.90;;;;;;5001187;28;19953;-51
2022/11/30 01:55:27;;;;;;;;;;;5.00;99.90;;;;;;4999807;28;19920;-49
2022/11/30 01:57:57;;;;;;;;;;;5.00;99.90;;;;;;4999096;28;19913;-47
2022/11/30 02:00:23;;;;;;;;;;;4.90;99.90;;;;;;4999785;28;19921;-50
2022/11/30 02:02:54;;;;;;;;;;;4.90;99.90;;;;;;5000247;28;20295;-50
2022/11/30 02:05:20;;;;;;;;;;;4.90;99.90;;;;;;4999782;28;20509;-46
2022/11/30 02:07:45;;;;;;;;;;;4.80;99.90;;;;;;4998482;28;19913;-48
2022/11/30 02:10:15;;;;;;;;;;;4.80;99.90;;;;;;4999759;28;19913;-47
2022/11/30 02:12:45;;;;;;;;;;;4.80;99.90;;;;;;4999405;28;19909;-48
2022/11/30 02:15:14;;;;;;;;;;;4.70;99.90;;;;;;5006046;28;19913;-53
2022/11/30 02:17:43;;;;;;;;;;;4.70;99.90;;;;;;5004841;28;20379;-50
2022/11/30 02:20:11;;;;;;;;;;;4.60;99.90;;;;;;5004809;28;19933;-52
2022/11/30 02:22:45;;;;;;;;;;;4.50;99.90;;;;;;5005731;28;19922;-46
2022/11/30 02:25:16;;;;;;;;;;;4.50;99.90;;;;;;5007699;28;19916;-48
2022/11/30 02:28:08;;;;;;;;;;;4.40;99.90;;;;;;5003482;28;19913;-51
2022/11/30 02:30:35;;;;;;;;;;;4.40;99.90;;;;;;4990671;28;19999;-46
2022/11/30 02:33:03;;;;;;;;;;;4.40;99.90;;;;;;5006353;28;19913;-49
2022/11/30 02:35:30;;;;;;;;;;;4.30;99.90;;;;;;5007035;28;19952;-48
2022/11/30 02:37:56;;;;;;;;;;;4.40;99.90;;;;;;5004496;28;19914;-51
2022/11/30 02:40:22;;;;;;;;;;;4.30;99.90;;;;;;5006776;28;20426;-53
2022/11/30 02:42:49;;;;;;;;;;;4.30;99.90;;;;;;5004426;28;19971;-50
2022/11/30 02:45:14;;;;;;;;;;;4.30;99.90;;;;;;5006075;28;20331;-50
2022/11/30 02:47:44;;;;;;;;;;;4.30;99.90;;;;;;5004542;28;19960;-52
2022/11/30 02:50:09;;;;;;;;;;;4.30;99.90;;;;;;5006635;28;20008;-53
2022/11/30 02:52:35;;;;;;;;;;;4.30;99.90;;;;;;5005760;28;20316;-52
2022/11/30 02:55:02;;;;;;;;;;;4.20;99.90;;;;;;5006990;28;19991;-53
2022/11/30 02:57:27;;;;;;;;;;;4.20;99.90;;;;;;5001828;28;19924;-51
2022/11/30 02:59:53;;;;;;;;;;;4.20;99.90;;;;;;5005378;28;19913;-52
2022/11/30 03:02:18;;;;;;;;;;;4.20;99.90;;;;;;5005544;28;20011;-47
2022/11/30 03:04:44;;;;;;;;;;;4.20;99.90;;;;;;5006521;28;19932;-54
2022/11/30 03:07:09;;;;;;;;;;;4.20;99.90;;;;;;5003513;28;19913;-53
2022/11/30 03:09:35;;;;;;;;;;;4.10;99.90;;;;;;5005940;28;20257;-50
2022/11/30 03:12:00;;;;;;;;;;;4.20;99.90;;;;;;5005492;28;19919;-50
2022/11/30 03:14:26;;;;;;;;;;;4.10;99.90;;;;;;5005432;28;19979;-49
2022/11/30 03:16:51;;;;;;;;;;;4.10;99.90;;;;;;5004240;28;19936;-52
2022/11/30 03:19:17;;;;;;;;;;;4.10;99.90;;;;;;5006542;28;19910;-49
2022/11/30 03:21:42;;;;;;;;;;;4.10;99.90;;;;;;5005428;28;20371;-48
2022/11/30 03:24:07;;;;;;;;;;;4.10;99.90;;;;;;5006244;28;20036;-47
2022/11/30 03:26:33;;;;;;;;;;;4.00;99.90;;;;;;5000291;28;19924;-51
2022/11/30 03:28:59;;;;;;;;;;;4.00;99.90;;;;;;5002139;28;19913;-51
2022/11/30 03:31:24;;;;;;;;;;;3.90;99.90;;;;;;5002586;28;19979;-52
2022/11/30 03:33:50;;;;;;;;;;;3.90;99.90;;;;;;5002929;28;19909;-46
2022/11/30 03:36:15;;;;;;;;;;;3.90;99.90;;;;;;4999077;28;20015;-51
2022/11/30 03:38:41;;;;;;;;;;;3.90;99.90;;;;;;5002156;28;20275;-54
2022/11/30 03:41:10;;;;;;;;;;;3.90;99.90;;;;;;4997282;28;19978;-49
2022/11/30 03:43:36;;;;;;;;;;;3.90;99.90;;;;;;5002131;28;19928;-51
2022/11/30 03:46:01;;;;;;;;;;;3.90;99.90;;;;;;5002484;28;19913;-53
2022/11/30 03:48:27;;;;;;;;;;;3.90;99.90;;;;;;5001477;28;19948;-50
2022/11/30 03:50:52;;;;;;;;;;;3.90;99.90;;;;;;5000841;28;20344;-52
2022/11/30 03:53:19;;;;;;;;;;;3.90;99.90;;;;;;5001522;28;19920;-49
2022/11/30 03:55:45;;;;;;;;;;;3.90;99.90;;;;;;5002617;28;19920;-50
2022/11/30 03:58:11;;;;;;;;;;;3.90;99.90;;;;;;5000498;28;20287;-50
2022/11/30 04:00:37;;;;;;;;;;;3.90;99.90;;;;;;5002515;28;19916;-51
2022/11/30 04:03:02;;;;;;;;;;;3.90;99.90;;;;;;5001642;28;19917;-48
2022/11/30 04:05:28;;;;;;;;;;;3.80;99.90;;;;;;5001494;28;19920;-53
2022/11/30 04:07:53;;;;;;;;;;;3.80;99.90;;;;;;5001161;28;20055;-49
2022/11/30 04:10:19;;;;;;;;;;;3.80;99.90;;;;;;5002234;28;19917;-47
2022/11/30 04:12:44;;;;;;;;;;;3.80;99.90;;;;;;5001655;28;20327;-53
2022/11/30 04:15:10;;;;;;;;;;;3.70;99.90;;;;;;5001552;28;20341;-50
2022/11/30 04:17:35;;;;;;;;;;;3.70;99.90;;;;;;5000567;28;20322;-50
2022/11/30 04:20:01;;;;;;;;;;;3.70;99.90;;;;;;5001122;28;19919;-55
2022/11/30 04:22:26;;;;;;;;;;;3.70;99.90;;;;;;5001155;28;20482;-51
2022/11/30 04:24:52;;;;;;;;;;;3.70;99.90;;;;;;4997548;28;19913;-48
2022/11/30 04:27:17;;;;;;;;;;;3.70;99.90;;;;;;5000272;28;20265;-48
2022/11/30 04:29:43;;;;;;;;;;;3.60;99.90;;;;;;5002034;28;20000;-48
2022/11/30 04:32:08;;;;;;;;;;;3.60;99.90;;;;;;5001994;28;19916;-50
2022/11/30 04:34:34;;;;;;;;;;;3.60;99.90;;;;;;5001380;28;20348;-49
2022/11/30 04:36:59;;;;;;;;;;;3.60;99.90;;;;;;4999698;28;19913;-49
2022/11/30 04:39:25;;;;;;;;;;;3.50;99.90;;;;;;5000942;28;19913;-54
2022/11/30 04:41:50;;;;;;;;;;;3.50;99.90;;;;;;5001742;28;19909;-50
2022/11/30 04:44:16;;;;;;;;;;;3.50;99.90;;;;;;4999302;28;20238;-51
2022/11/30 04:46:41;;;;;;;;;;;3.50;99.90;;;;;;4999548;28;20684;-52
2022/11/30 04:49:06;;;;;;;;;;;3.50;99.90;;;;;;5001226;28;19909;-48
2022/11/30 04:51:32;;;;;;;;;;;3.50;99.90;;;;;;5001726;28;19906;-48
2022/11/30 04:53:57;;;;;;;;;;;3.50;99.90;;;;;;4999720;28;20010;-49
2022/11/30 04:56:23;;;;;;;;;;;3.50;99.90;;;;;;5001137;28;20271;-56
2022/11/30 04:58:48;;;;;;;;;;;3.50;99.90;;;;;;5001203;28;19963;-49
2022/11/30 05:01:14;;;;;;;;;;;3.50;99.90;;;;;;5000985;28;20245;-46
2022/11/30 05:03:39;;;;;;;;;;;3.50;99.90;;;;;;5000868;28;19963;-49
2022/11/30 05:06:05;;;;;;;;;;;3.50;99.90;;;;;;5000397;28;19918;-52
2022/11/30 05:08:30;;;;;;;;;;;3.50;99.90;;;;;;4999767;28;20343;-48
2022/11/30 05:10:56;;;;;;;;;;;3.40;99.90;;;;;;5000056;28;19924;-50
2022/11/30 05:13:22;;;;;;;;;;;3.40;99.90;;;;;;5000100;28;21327;-49
2022/11/30 05:15:48;;;;;;;;;;;3.40;99.90;;;;;;4996938;28;19916;-55
2022/11/30 05:18:14;;;;;;;;;;;3.40;99.90;;;;;;4999401;28;19913;-49
2022/11/30 05:20:40;;;;;;;;;;;3.50;99.90;;;;;;4999930;28;19975;-54
2022/11/30 05:23:06;;;;;;;;;;;3.50;99.90;;;;;;4998892;28;20383;-53
2022/11/30 05:25:31;;;;;;;;;;;3.40;99.90;;;;;;5000411;28;19906;-56
2022/11/30 05:27:57;;;;;;;;;;;3.50;99.90;;;;;;5000073;28;19964;-52
2022/11/30 05:30:23;;;;;;;;;;;3.50;99.90;;;;;;4999513;28;20268;-52
2022/11/30 05:32:48;;;;;;;;;;;3.50;99.90;;;;;;5000103;28;19956;-57
2022/11/30 05:35:14;;;;;;;;;;;3.50;99.90;;;;;;4992710;28;19916;-57
2022/11/30 05:37:39;;;;;;;;;;;3.50;99.90;;;;;;4972388;28;19917;-57
2022/11/30 05:40:05;;;;;;;;;;;3.50;99.90;;;;;;4999015;28;19921;-55
2022/11/30 05:42:30;;;;;;;;;;;3.60;99.90;;;;;;4999037;28;19917;-56
2022/11/30 05:44:56;;;;;;;;;;;3.60;99.90;;;;;;5000915;28;19944;-56
2022/11/30 05:47:21;;;;;;;;;;;3.50;99.90;;;;;;5000447;28;20284;-53
2022/11/30 05:49:47;;;;;;;;;;;3.50;99.90;;;;;;5000062;28;19913;-53
2022/11/30 05:52:12;;;;;;;;;;;3.60;99.90;;;;;;5000968;28;19984;-56
2022/11/30 05:54:38;;;;;;;;;;;3.60;99.90;;;;;;5000666;28;19909;-50
2022/11/30 05:57:04;;;;;;;;;;;3.50;99.90;;;;;;4999833;28;20012;-49
2022/11/30 05:59:29;;;;;;;;;;;3.60;99.90;;;;;;4999188;28;20336;-55
2022/11/30 06:01:55;;;;;;;;;;;3.60;99.90;;;;;;4999649;28;21796;-58
2022/11/30 06:04:21;;;;;;;;;;;3.60;99.90;;;;;;5000522;28;20064;-56
2022/11/30 06:06:48;;;;;;;;;;;3.60;99.90;;;;;;4999662;28;19913;-53
2022/11/30 06:09:13;;;;;;;;;;;3.60;99.90;;;;;;4998845;28;19921;-57
2022/11/30 06:11:39;;;;;;;;;;;3.60;99.90;;;;;;4999149;28;19913;-54
2022/11/30 06:14:04;;;;;;;;;;;3.50;99.90;;;;;;5000504;28;20233;-52
2022/11/30 06:16:30;;;;;;;;;;;3.50;99.90;;;;;;4999615;28;19914;-54
2022/11/30 06:18:55;;;;;;;;;;;3.50;99.90;;;;;;4999856;28;20547;-58
2022/11/30 06:21:21;;;;;;;;;;;3.50;99.90;;;;;;5000122;28;19917;-56
2022/11/30 06:23:46;;;;;;;;;;;3.40;99.90;;;;;;4999972;28;20395;-46
2022/11/30 06:26:12;;;;;;;;;;;3.30;99.90;;;;;;4999681;28;19913;-53
2022/11/30 06:28:38;;;;;;;;;;;3.30;99.90;;;;;;5000418;28;20032;-55
2022/11/30 06:31:05;;;;;;;;;;;3.30;99.90;;;;;;4999878;28;20315;-56
2022/11/30 06:33:31;;;;;;;;;;;3.30;99.90;;;;;;5000127;28;20383;-51
2022/11/30 06:35:56;;;;;;;;;;;3.30;99.90;;;;;;4999104;28;19909;-51
2022/11/30 06:38:22;;;;;;;;;;;3.30;99.90;;;;;;4999473;28;20348;-53
2022/11/30 06:40:48;;;;;;;;;;;3.30;99.90;;;;;;4999969;28;19996;-54
2022/11/30 06:43:13;;;;;;;;;;;3.30;99.90;;;;;;5000192;28;19918;-56
2022/11/30 06:45:41;;;;;;;;;;;3.30;99.90;;;;;;5000036;28;19924;-54
2022/11/30 06:48:07;;;;;;;;;;;3.30;99.90;;;;;;4998225;28;19962;-56
2022/11/30 06:50:32;;;;;;;;;;;3.30;99.90;;;;;;4999882;28;19909;-57
2022/11/30 06:52:58;;;;;;;;;;;3.30;99.90;;;;;;4998783;28;19909;-54
2022/11/30 06:55:23;;;;;;;;;;;3.30;99.90;;;;;;5000206;28;19917;-54
2022/11/30 06:57:49;;;;;;;;;;;3.30;99.90;;;;;;4998735;28;19917;-55
2022/11/30 07:00:15;;;;;;;;;;;3.30;99.90;;;;;;4999146;28;19940;-56
2022/11/30 07:02:42;;;;;;;;;;;3.20;99.90;;;;;;5003138;28;19920;-54
2022/11/30 07:05:07;;;;;;;;;;;3.20;99.90;;;;;;5003547;28;19921;-56
2022/11/30 07:07:33;;;;;;;;;;;3.20;99.90;;;;;;5002713;28;19913;-56
2022/11/30 07:09:58;;;;;;;;;;;3.20;99.90;;;;;;5003316;28;19933;-54
2022/11/30 07:12:24;;;;;;;;;;;3.20;99.90;;;;;;5003296;28;19909;-56
2022/11/30 07:14:52;;;;;;;;;;;3.20;99.90;;;;;;5002594;28;20431;-56
2022/11/30 07:17:18;;;;;;;;;;;3.20;99.90;;;;;;5003722;28;19996;-55
2022/11/30 07:19:43;;;;;;;;;;;3.20;99.90;;;;;;5003335;28;19909;-57
2022/11/30 07:22:09;;;;;;;;;;;3.20;99.90;;;;;;5002848;28;19944;-55
2022/11/30 07:27:18;;;;;;;;;;;3.20;99.90;;;;;;5001990;28;20787;-52
2022/11/30 07:29:47;;;;;;;;;;;3.20;99.90;;;;;;5002645;28;19939;-49
2022/11/30 07:32:12;;;;;;;;;;;3.20;99.90;;;;;;5003161;28;20403;-53
2022/11/30 07:34:38;;;;;;;;;;;3.30;99.90;;;;;;5000748;28;19917;-53
2022/11/30 07:37:03;;;;;;;;;;;3.30;99.90;;;;;;5003101;28;19916;-55
2022/11/30 07:39:29;;;;;;;;;;;3.40;99.90;;;;;;5003141;28;19913;-57
2022/11/30 07:41:54;;;;;;;;;;;3.40;99.90;;;;;;5002788;28;19913;-54
2022/11/30 07:44:20;;;;;;;;;;;3.50;99.90;;;;;;5002369;28;19913;-55
2022/11/30 07:46:47;;;;;;;;;;;3.50;99.90;;;;;;5002512;28;20184;-56
2022/11/30 07:49:12;;;;;;;;;;;3.50;99.90;;;;;;5002825;28;19916;-56
2022/11/30 07:51:38;;;;;;;;;;;3.70;99.90;;;;;;5002475;28;20371;-54
2022/11/30 07:54:03;;;;;;;;;;;3.80;99.90;;;;;;5002157;28;19913;-57
2022/11/30 07:56:29;;;;;;;;;;;3.80;99.90;;;;;;5002354;28;20431;-57
2022/11/30 07:58:56;;;;;;;;;;;3.90;99.90;;;;;;5002562;28;19909;-54
2022/11/30 08:01:22;;;;;;;;;;;4.00;99.90;;;;;;5001792;28;20502;-57
2022/11/30 08:03:48;;;;;;;;;;;4.20;99.90;;;;;;5002122;28;20260;-57
2022/11/30 08:06:15;;;;;;;;;;;4.40;99.90;;;;;;5002537;28;20711;-55
2022/11/30 08:08:44;;;;;;;;;;;4.80;99.90;;;;;;5002559;28;19909;-50
2022/11/30 08:11:11;;;;;;;;;;;5.10;99.90;;;;;;5001668;28;19909;-57
2022/11/30 08:13:36;;;;;;;;;;;5.50;99.90;;;;;;5002273;28;20272;-57
2022/11/30 08:16:06;;;;;;;;;;;5.90;99.90;;;;;;5002094;28;19963;-55
2022/11/30 08:18:32;;;;;;;;;;;6.20;99.90;;;;;;5002329;28;20436;-56
2022/11/30 08:21:02;;;;;;;;;;;6.50;99.90;;;;;;5002116;28;20003;-55
2022/11/30 08:23:32;;;;;;;;;;;6.80;99.90;;;;;;5001264;28;19967;-57
2022/11/30 08:26:05;;;;;;;;;;;7.20;99.90;;;;;;5001951;28;19909;-57
2022/11/30 08:28:31;;;;;;;;;;;7.20;99.90;;;;;;5002022;28;19910;-54
2022/11/30 08:31:00;;;;;;;;;;;7.10;99.90;;;;;;5002147;28;19996;-54
2022/11/30 08:33:26;;;;;;;;;;;7.20;99.90;;;;;;5001393;28;19918;-55
2022/11/30 08:35:51;;;;;;;;;;;7.30;99.90;;;;;;5001707;28;19999;-55
2022/11/30 08:38:17;;;;;;;;;;;7.60;99.90;;;;;;5002251;28;20315;-53
2022/11/30 08:40:42;;;;;;;;;;;8.00;99.90;;;;;;5001545;28;19913;-56
2022/11/30 08:43:08;;;;;;;;;;;8.10;99.90;;;;;;4987207;28;20262;-56
2022/11/30 08:45:34;;;;;;;;;;;8.30;99.80;;;;;;5001909;28;20367;-59
2022/11/30 08:47:59;;;;;;;;;;;8.40;98.50;;;;;;5000604;28;19963;-53
2022/11/30 08:50:25;;;;;;;;;;;8.60;98.40;;;;;;5000837;28;19924;-54
2022/11/30 08:52:52;;;;;;;;;;;8.70;97.20;;;;;;5001434;28;20279;-58
2022/11/30 08:55:17;;;;;;;;;;;8.70;96.70;;;;;;5001744;28;19910;-57
2022/11/30 08:57:43;;;;;;;;;;;9.00;96.60;;;;;;4999021;28;20509;-57
2022/11/30 09:00:09;;;;;;;;;;;9.10;95.70;;;;;;5001671;28;19936;-56
2022/11/30 09:02:35;;;;;;;;;;;9.20;94.60;;;;;;5001245;28;19920;-57
2022/11/30 09:05:01;;;;;;;;;;;9.30;94.50;;;;;;5001385;28;20000;-54
2022/11/30 09:07:26;;;;;;;;;;;9.60;93.90;;;;;;5000502;28;19913;-55
2022/11/30 09:09:52;;;;;;;;;;;9.60;92.10;;;;;;4999356;28;20278;-50
2022/11/30 09:12:17;;;;;;;;;;;9.90;91.70;;;;;;5001073;28;19913;-58
2022/11/30 09:14:44;;;;;;;;;;;10.00;90.20;;;;;;5001153;28;20343;-58
2022/11/30 09:17:09;;;;;;;;;;;10.20;90.20;;;;;;5000274;28;19999;-56
2022/11/30 09:19:35;;;;;;;;;;;10.30;89.20;;;;;;5001454;28;20434;-57
2022/11/30 09:22:00;;;;;;;;;;;10.50;88.00;;;;;;5000655;28;19925;-57
2022/11/30 09:24:26;;;;;;;;;;;10.90;87.30;;;;;;5001223;28;20359;-58
2022/11/30 09:26:54;;;;;;;;;;;11.20;84.70;;;;;;5000302;28;20291;-59
2022/11/30 09:29:19;;;;;;;;;;;11.50;80.80;;;;;;5000874;28;20348;-56
2022/11/30 09:31:45;;;;;;;;;;;11.70;78.00;;;;;;4999538;28;19920;-53
2022/11/30 09:34:10;;;;;;;;;;;12.00;73.70;;;;;;5000736;28;19909;-60
2022/11/30 09:36:36;;;;;;;;;;;12.30;73.50;;;;;;5001129;28;19956;-56
2022/11/30 09:39:01;;;;;;;;;;;12.40;71.20;;;;;;5000761;28;19952;-58
2022/11/30 09:41:27;;;;;;;;;;;12.40;69.60;;;;;;4999135;28;20660;-55
2022/11/30 09:44:11;;;;;;;;;;;12.40;68.90;;;;;;5000204;28;19979;-53
2022/11/30 09:46:39;;;;;;;;;;;12.30;67.80;;;;;;5000382;28;19928;-57
2022/11/30 09:49:11;;;;;;;;;;;12.20;70.00;;;;;;5000120;28;20307;-55
2022/11/30 09:51:37;;;;;;;;;;;12.00;68.80;;;;;;5000484;28;19941;-58
2022/11/30 09:54:12;;;;;;;;;;;12.10;69.70;;;;;;5000655;28;20688;-58
2022/11/30 09:56:39;;;;;;;;;;;12.20;68.00;;;;;;5000894;28;20272;-58
2022/11/30 09:59:21;;;;;;;;;;;12.20;69.10;;;;;;4999793;28;20386;-57
2022/11/30 10:01:47;;;;;;;;;;;12.50;67.90;;;;;;5000592;28;20303;-58
2022/11/30 10:04:22;;;;;;;;;;;13.10;65.40;;;;;;5000827;28;19959;-59
2022/11/30 10:06:48;;;;;;;;;;;13.10;64.60;;;;;;4998999;28;19920;-57
2022/11/30 10:09:21;;;;;;;;;;;13.30;63.10;;;;;;4989882;28;20283;-60
2022/11/30 10:11:55;;;;;;;;;;;13.70;62.40;;;;;;5000425;28;19910;-59
2022/11/30 10:14:26;;;;;;;;;;;13.90;59.00;;;;;;5000308;28;19913;-55
2022/11/30 10:16:59;;;;;;;;;;;14.40;58.50;;;;;;4999990;28;20470;-58
2022/11/30 10:19:24;;;;;;;;;;;14.80;56.70;;;;;;5000722;28;19910;-58
2022/11/30 10:21:52;;;;;;;;;;;14.70;54.30;;;;;;4999653;28;19925;-54
2022/11/30 10:24:24;;;;;;;;;;;15.10;54.60;;;;;;5000215;28;19909;-58
2022/11/30 10:26:53;;;;;;;;;;;15.30;53.00;;;;;;4999498;28;20279;-48
2022/11/30 10:29:21;;;;;;;;;;;15.30;51.80;;;;;;4999487;28;20014;-51
2022/11/30 10:31:48;;;;;;;;;;;15.90;51.30;;;;;;5000308;28;20047;-50
2022/11/30 10:34:21;;;;;;;;;;;15.80;48.50;;;;;;5000978;28;20315;-56
2022/11/30 10:36:51;;;;;;;;;;;16.10;49.40;;;;;;5003710;28;19952;-49
2022/11/30 10:39:19;;;;;;;;;;;15.50;47.50;;;;;;5004226;28;19971;-55
2022/11/30 10:41:52;;;;;;;;;;;14.80;48.20;;;;;;5004628;28;19941;-54
2022/11/30 10:44:21;;;;;;;;;;;14.40;49.80;;;;;;5004340;28;20260;-50
2022/11/30 10:46:52;;;;;;;;;;;14.70;50.80;;;;;;5003122;28;19913;-49
2022/11/30 10:49:18;;;;;;;;;;;14.40;51.50;;;;;;5003612;28;19956;-51
2022/11/30 10:51:45;;;;;;;;;;;14.40;50.50;;;;;;5004316;28;20461;-49
2022/11/30 10:54:15;;;;;;;;;;;14.40;50.20;;;;;;5003785;28;20415;-51
2022/11/30 10:56:41;;;;;;;;;;;13.80;51.80;;;;;;5002994;28;20019;-49
2022/11/30 10:59:18;;;;;;;;;;;14.10;52.50;;;;;;5003789;28;19945;-50
2022/11/30 11:01:44;;;;;;;;;;;13.90;51.90;;;;;;5003550;28;20411;-49
2022/11/30 11:04:16;;;;;;;;;;;13.50;54.30;;;;;;5003612;28;19916;-49
2022/11/30 11:06:44;;;;;;;;;;;13.70;53.40;;;;;;5002966;28;19920;-48
2022/11/30 11:09:28;;;;;;;;;;;13.80;54.20;;;;;;5003724;28;19949;-50
2022/11/30 11:11:56;;;;;;;;;;;14.10;52.80;;;;;;5003644;28;19963;-53
2022/11/30 11:14:22;;;;;;;;;;;14.40;52.10;;;;;;5003671;28;19992;-48
2022/11/30 11:16:57;;;;;;;;;;;14.20;50.70;;;;;;5002201;28;19917;-51
2022/11/30 11:19:32;;;;;;;;;;;14.50;51.30;;;;;;5003301;28;19905;-46
2022/11/30 11:21:59;;;;;;;;;;;14.50;51.30;;;;;;5003175;28;19921;-47
2022/11/30 11:24:25;;;;;;;;;;;14.80;51.20;;;;;;5003433;28;20397;-52
2022/11/30 11:26:51;;;;;;;;;;;14.70;50.70;;;;;;5003032;28;19905;-51
2022/11/30 11:29:30;;;;;;;;;;;14.80;50.70;;;;;;5002667;28;19952;-58
2022/11/30 11:32:06;;;;;;;;;;;14.40;51.00;;;;;;5003243;28;19913;-50
2022/11/30 11:34:35;;;;;;;;;;;13.70;51.50;;;;;;5003250;28;19909;-54
2022/11/30 11:37:04;;;;;;;;;;;12.60;53.60;;;;;;5003634;28;19925;-53
2022/11/30 11:39:29;;;;;;;;;;;11.90;56.70;;;;;;5002242;28;19920;-53
2022/11/30 11:41:55;;;;;;;;;;;11.40;58.50;;;;;;5002555;28;19914;-57
2022/11/30 11:44:21;;;;;;;;;;;10.70;61.20;;;;;;5003020;28;19909;-56
2022/11/30 11:47:04;;;;;;;;;;;10.00;64.30;;;;;;5001737;28;19909;-57
2022/11/30 11:49:37;;;;;;;;;;;9.80;68.00;;;;;;5002632;28;19916;-57
2022/11/30 11:52:11;;;;;;;;;;;9.30;72.70;;;;;;5002515;28;20387;-58
2022/11/30 11:54:40;;;;;;;;;;;9.10;75.80;;;;;;5002136;28;19971;-57
2022/11/30 11:57:10;;;;;;;;;;;9.00;79.80;;;;;;5001539;28;19917;-57
2022/11/30 11:59:39;;;;;;;;;;;8.70;82.30;;;;;;5002925;28;19910;-59
2022/11/30 12:02:18;;;;;;;;;;;8.50;87.70;;;;;;5002060;28;19914;-55
2022/11/30 12:04:46;;;;;;;;;;;8.50;89.90;;;;;;5002208;28;19917;-59
2022/11/30 12:07:15;;;;;;;;;;;8.50;91.20;;;;;;5001780;28;19913;-52
2022/11/30 12:09:46;;;;;;;;;;;8.50;92.20;;;;;;5002555;28;19909;-49
2022/11/30 12:12:12;;;;;;;;;;;8.40;92.20;;;;;;5002643;28;19906;-49
2022/11/30 12:14:38;;;;;;;;;;;8.30;92.20;;;;;;5000323;28;20288;-54
2022/11/30 12:17:12;;;;;;;;;;;8.30;92.90;;;;;;5002447;28;20339;-52
2022/11/30 12:19:50;;;;;;;;;;;8.40;93.50;;;;;;5002515;28;19909;-51
2022/11/30 12:22:18;;;;;;;;;;;8.40;92.90;;;;;;5002000;28;19925;-51
2022/11/30 12:24:53;;;;;;;;;;;8.50;93.40;;;;;;5002252;28;20412;-57
2022/11/30 12:27:21;;;;;;;;;;;8.60;93.50;;;;;;5002099;28;19909;-49
2022/11/30 12:29:52;;;;;;;;;;;8.80;92.80;;;;;;5001998;28;19909;-48
2022/11/30 12:32:21;;;;;;;;;;;9.20;92.20;;;;;;5001783;28;20363;-48
2022/11/30 12:35:05;;;;;;;;;;;9.60;89.70;;;;;;5001314;28;19956;-46
2022/11/30 12:37:30;;;;;;;;;;;10.00;86.90;;;;;;5000862;28;19936;-48
2022/11/30 12:40:14;;;;;;;;;;;10.40;83.60;;;;;;5001846;28;19910;-52
2022/11/30 12:42:40;;;;;;;;;;;10.90;79.30;;;;;;5000512;28;19947;-51
2022/11/30 12:45:20;;;;;;;;;;;11.70;75.80;;;;;;5000199;28;19913;-53
2022/11/30 12:47:50;;;;;;;;;;;12.20;70.80;;;;;;5001518;28;19916;-49
2022/11/30 12:50:16;;;;;;;;;;;12.70;66.50;;;;;;5000546;28;19960;-55
2022/11/30 12:52:44;;;;;;;;;;;13.10;64.60;;;;;;5001459;28;19913;-49
2022/11/30 12:55:16;;;;;;;;;;;13.50;59.70;;;;;;4999505;28;19980;-48
2022/11/30 12:57:47;;;;;;;;;;;13.60;57.70;;;;;;5000775;28;20378;-51
2022/11/30 13:00:18;;;;;;;;;;;13.20;58.10;;;;;;4999926;28;19928;-48
2022/11/30 13:02:44;;;;;;;;;;;12.40;59.00;;;;;;5000624;28;19913;-50
2022/11/30 13:05:11;;;;;;;;;;;12.00;61.80;;;;;;5001409;28;20245;-50
2022/11/30 13:07:43;;;;;;;;;;;11.60;64.10;;;;;;5001303;28;20299;-59
2022/11/30 13:10:25;;;;;;;;;;;11.20;65.60;;;;;;4999477;28;19975;-59
2022/11/30 13:12:52;;;;;;;;;;;10.70;68.60;;;;;;5000728;28;19920;-58
2022/11/30 13:15:19;;;;;;;;;;;10.40;70.80;;;;;;5001167;28;19936;-51
2022/11/30 13:17:45;;;;;;;;;;;10.10;75.80;;;;;;5001358;28;19913;-58
2022/11/30 13:20:29;;;;;;;;;;;9.90;77.90;;;;;;5001310;28;20047;-58
2022/11/30 13:22:58;;;;;;;;;;;9.80;79.80;;;;;;5000066;28;19931;-58
2022/11/30 13:25:42;;;;;;;;;;;9.60;82.00;;;;;;5001011;28;20168;-53
2022/11/30 13:28:28;;;;;;;;;;;9.40;85.20;;;;;;5001199;28;19909;-56
2022/11/30 13:31:06;;;;;;;;;;;9.40;88.30;;;;;;5000522;28;19962;-57
2022/11/30 13:33:46;;;;;;;;;;;9.20;88.10;;;;;;5000100;28;20008;-56
2022/11/30 13:36:24;;;;;;;;;;;9.10;90.00;;;;;;4999853;28;19917;-56
2022/11/30 13:39:10;;;;;;;;;;;9.10;90.80;;;;;;5000699;28;19910;-55
2022/11/30 13:41:36;;;;;;;;;;;9.40;90.30;;;;;;4993205;28;19917;-55
2022/11/30 13:44:02;;;;;;;;;;;9.70;87.70;;;;;;5000785;28;19919;-56
2022/11/30 13:46:28;;;;;;;;;;;9.90;85.70;;;;;;4999789;28;20356;-52
2022/11/30 13:49:16;;;;;;;;;;;10.00;84.20;;;;;;5000612;28;20003;-56
2022/11/30 13:51:42;;;;;;;;;;;9.90;84.40;;;;;;5000763;28;19913;-56
2022/11/30 13:54:26;;;;;;;;;;;9.90;85.20;;;;;;4998219;28;19909;-58
2022/11/30 13:56:52;;;;;;;;;;;9.90;84.80;;;;;;5000557;28;19920;-58
2022/11/30 13:59:23;;;;;;;;;;;9.90;85.20;;;;;;5000737;28;19909;-58
2022/11/30 14:01:49;;;;;;;;;;;9.70;84.80;;;;;;5000412;28;19999;-59
2022/11/30 14:04:31;;;;;;;;;;;9.40;86.30;;;;;;4999521;28;19917;-57
2022/11/30 14:06:59;;;;;;;;;;;9.10;88.90;;;;;;5000787;28;19974;-55
2022/11/30 14:09:37;;;;;;;;;;;8.90;90.70;;;;;;5000136;28;19913;-57
2022/11/30 14:12:22;;;;;;;;;;;8.70;92.30;;;;;;5000002;28;19999;-48
2022/11/30 14:14:48;;;;;;;;;;;8.60;93.10;;;;;;4992169;28;20300;-51
2022/11/30 14:17:16;;;;;;;;;;;8.40;93.40;;;;;;5000448;28;20348;-57
2022/11/30 14:19:42;;;;;;;;;;;8.30;94.80;;;;;;4999451;28;19996;-58
2022/11/30 14:22:09;;;;;;;;;;;8.20;95.30;;;;;;5000013;28;19968;-56
2022/11/30 14:24:35;;;;;;;;;;;8.20;97.00;;;;;;5000436;28;19920;-56
2022/11/30 14:27:01;;;;;;;;;;;8.00;97.60;;;;;;5000138;28;20348;-57
2022/11/30 14:29:30;;;;;;;;;;;7.90;98.50;;;;;;4999946;28;20352;-56
2022/11/30 14:31:57;;;;;;;;;;;7.80;99.20;;;;;;4999778;28;19920;-58